Time;durP1;ratioP1;P1;durP2;ratioP2;P2;SDS_P1;SDS_P2;PMS_P1;PMS_P2;Temp;Humidity;BMP_temperature;BMP_pressure;BME280_temperature;BME280_humidity;BME280_pressure;Samples;Min_cycle;Max_cycle;Signal;HPM_P1;HPM_P2
2022/07/10 00:02:06;;;;;;;13.63;2.00;;;;;;;48.72;3.66;101025.34;5049112;28;20112;-59
2022/07/10 00:04:34;;;;;;;5.88;2.10;;;;;;;48.52;3.90;101026.38;5051471;28;20043;-61
2022/07/10 00:07:01;;;;;;;11.07;2.30;;;;;;;48.64;3.60;101027.97;5048582;28;20037;-62
2022/07/10 00:09:28;;;;;;;18.42;2.15;;;;;;;48.97;3.37;101026.41;5050349;28;20483;-60
2022/07/10 00:11:55;;;;;;;10.15;2.22;;;;;;;48.13;3.60;101015.56;5051956;28;20043;-60
2022/07/10 00:14:22;;;;;;;8.23;1.95;;;;;;;48.92;3.17;101012.75;5051074;28;20470;-61
2022/07/10 00:16:49;;;;;;;10.52;2.10;;;;;;;49.24;2.93;101011.13;5051282;28;20029;-60
2022/07/10 00:19:16;;;;;;;8.18;1.67;;;;;;;50.35;3.39;100997.53;5051010;28;20090;-60
2022/07/10 00:21:43;;;;;;;7.40;1.85;;;;;;;50.13;2.92;100997.66;5051159;28;20033;-60
2022/07/10 00:24:12;;;;;;;9.05;2.08;;;;;;;50.35;3.14;101000.41;5050969;28;20021;-60
2022/07/10 00:26:39;;;;;;;24.42;3.10;;;;;;;49.28;3.69;100993.53;5050437;28;20059;-61
2022/07/10 00:29:10;;;;;;;9.80;2.30;;;;;;;47.93;3.92;100989.78;5050834;28;20048;-63
2022/07/10 00:31:37;;;;;;;8.52;2.03;;;;;;;46.74;4.66;100992.50;5050524;28;20036;-59
2022/07/10 00:34:04;;;;;;;12.82;2.38;;;;;;;46.92;4.25;100986.38;5050403;28;20021;-60
2022/07/10 00:36:31;;;;;;;8.70;2.28;;;;;;;47.96;5.85;100991.66;5051356;28;20158;-62
2022/07/10 00:38:58;;;;;;;11.55;2.22;;;;;;;47.74;3.94;100988.66;5048893;28;20037;-61
2022/07/10 00:41:25;;;;;;;9.32;2.10;;;;;;;46.94;4.64;100980.91;5050214;28;20024;-61
2022/07/10 00:43:57;;;;;;;12.40;2.53;;;;;;;46.32;4.99;100979.53;5050600;28;20440;-61
2022/07/10 00:46:28;;;;;;;9.80;2.40;;;;;;;46.43;5.07;100983.84;5048924;28;20037;-61
2022/07/10 00:48:55;;;;;;;12.57;2.13;;;;;;;45.73;5.02;100982.81;5049697;28;20041;-60
2022/07/10 00:51:25;;;;;;;8.63;1.80;;;;;;;45.45;4.64;100985.31;5046570;28;20109;-61
2022/07/10 00:53:52;;;;;;;33.97;4.20;;;;;;;44.75;5.27;100988.13;5049536;28;20025;-61
2022/07/10 00:56:24;;;;;;;9.55;2.25;;;;;;;43.96;5.85;100991.59;5048901;28;20029;-61
2022/07/10 00:58:51;;;;;;;7.93;3.05;;;;;;;44.07;5.90;100985.31;5050158;28;20043;-61
2022/07/10 01:01:19;;;;;;;9.90;2.30;;;;;;;44.78;7.94;100977.75;5050680;28;20026;-60
2022/07/10 01:03:47;;;;;;;5.53;1.73;;;;;;;44.83;5.49;100979.91;5050539;28;20094;-60
2022/07/10 01:06:14;;;;;;;10.85;2.08;;;;;;;44.56;5.33;100975.31;5050724;28;20383;-61
2022/07/10 01:08:42;;;;;;;10.30;2.38;;;;;;;44.24;5.53;100974.97;5049239;28;20036;-61
2022/07/10 01:11:14;;;;;;;39.08;2.95;;;;;;;44.11;5.78;100976.53;5051265;28;20029;-61
2022/07/10 01:13:43;;;;;;;6.97;1.73;;;;;;;44.72;5.77;100974.00;5051497;28;20040;-61
2022/07/10 01:16:11;;;;;;;7.68;2.00;;;;;;;44.27;6.25;100976.06;5052108;28;20056;-61
2022/07/10 01:18:38;;;;;;;15.35;2.13;;;;;;;43.86;5.92;100975.00;5052248;28;20053;-60
2022/07/10 01:21:05;;;;;;;10.27;2.65;;;;;;;43.73;5.64;100969.53;5052090;28;20043;-60
2022/07/10 01:23:34;;;;;;;9.60;2.08;;;;;;;43.71;6.07;100974.97;5051876;28;20056;-61
2022/07/10 01:26:02;;;;;;;6.57;1.63;;;;;;;43.63;7.22;100973.72;5052057;28;20036;-60
2022/07/10 01:28:31;;;;;;;23.25;2.28;;;;;;;43.51;5.99;100977.63;5051817;28;20442;-60
2022/07/10 01:30:58;;;;;;;13.20;2.63;;;;;;;43.47;5.88;100977.81;5051815;28;20024;-61
2022/07/10 01:33:26;;;;;;;14.07;2.08;;;;;;;43.16;6.15;100978.16;5051803;28;20033;-60
2022/07/10 01:35:53;;;;;;;9.75;2.10;;;;;;;43.01;6.52;100972.34;5050235;28;20080;-60
2022/07/10 01:38:22;;;;;;;9.48;1.60;;;;;;;43.04;5.56;100965.63;5054682;28;20037;-60
2022/07/10 01:40:49;;;;;;;7.72;1.52;;;;;;;42.97;6.07;100971.72;5070934;28;20045;-60
2022/07/10 01:43:18;;;;;;;9.70;2.28;;;;;;;42.82;5.95;100968.75;5055443;28;20039;-60
2022/07/10 01:45:44;;;;;;;11.27;2.00;;;;;;;42.71;6.31;100971.31;5055319;28;20029;-60
2022/07/10 01:48:11;;;;;;;9.75;2.38;;;;;;;42.74;6.76;100969.59;5055382;28;20048;-61
2022/07/10 01:50:38;;;;;;;43.25;4.18;;;;;;;43.11;6.79;100973.09;5054452;28;20032;-60
2022/07/10 01:53:08;;;;;;;19.35;3.00;;;;;;;43.41;6.00;100974.81;5055629;28;20025;-60
2022/07/10 01:55:35;;;;;;;22.30;2.97;;;;;;;43.42;7.33;100967.81;5054995;28;20377;-60
2022/07/10 01:58:02;;;;;;;15.57;2.58;;;;;;;43.46;6.92;100964.78;5055582;28;20388;-61
2022/07/10 02:00:30;;;;;;;13.40;2.80;;;;;;;43.32;6.28;100960.59;5053592;28;20024;-61
2022/07/10 02:05:46;;;;;;;14.55;2.40;;;;;;;43.22;6.60;100979.06;5054793;28;20425;-60
2022/07/10 02:08:13;;;;;;;12.80;2.63;;;;;;;43.26;6.59;100970.28;5054863;28;20112;-60
2022/07/10 02:10:39;;;;;;;24.35;3.10;;;;;;;43.18;6.28;100971.94;5054866;28;20048;-61
2022/07/10 02:13:06;;;;;;;16.08;2.60;;;;;;;42.86;6.88;100957.13;5054835;28;20033;-60
2022/07/10 02:15:33;;;;;;;19.98;3.33;;;;;;;42.71;6.65;100971.31;5054482;28;20036;-60
2022/07/10 02:18:00;;;;;;;19.23;3.60;;;;;;;42.43;7.16;100970.59;5054824;28;20159;-60
2022/07/10 02:20:27;;;;;;;20.13;3.72;;;;;;;42.11;7.06;100965.56;5054780;28;20037;-61
2022/07/10 02:22:53;;;;;;;16.63;3.50;;;;;;;41.91;7.05;100971.75;5054685;28;20021;-59
2022/07/10 02:25:20;;;;;;;11.63;3.67;;;;;;;41.73;7.18;100974.59;5054552;28;20033;-60
2022/07/10 02:27:47;;;;;;;14.85;3.55;;;;;;;41.59;7.15;100973.91;5054529;28;20061;-60
2022/07/10 02:30:13;;;;;;;16.77;3.70;;;;;;;41.38;7.37;100976.91;5054023;28;20029;-60
2022/07/10 02:32:43;;;;;;;16.98;4.28;;;;;;;41.18;7.64;100980.16;5054696;28;20104;-61
2022/07/10 02:35:12;;;;;;;16.30;4.15;;;;;;;41.01;7.67;100983.28;5054306;28;20111;-60
2022/07/10 02:37:38;;;;;;;15.00;3.88;;;;;;;40.76;7.93;100983.47;5052937;28;20068;-61
2022/07/10 02:40:06;;;;;;;20.65;4.93;;;;;;;40.69;7.61;100978.03;5054308;28;20479;-60
2022/07/10 02:42:33;;;;;;;21.73;4.95;;;;;;;40.56;8.12;100974.47;5054301;28;20540;-59
2022/07/10 02:44:59;;;;;;;20.23;5.45;;;;;;;40.39;8.02;100991.78;5054139;28;20048;-59
2022/07/10 02:47:26;;;;;;;19.13;5.15;;;;;;;40.20;7.98;100980.69;5053919;28;20074;-60
2022/07/10 02:49:54;;;;;;;14.25;5.35;;;;;;;40.17;7.84;100983.22;5053332;28;20044;-61
2022/07/10 02:52:20;;;;;;;13.38;5.63;;;;;;;40.14;8.00;100989.03;5036428;28;20036;-61
2022/07/10 02:54:48;;;;;;;23.58;6.13;;;;;;;39.99;7.94;100982.28;5054131;28;20036;-60
2022/07/10 02:57:14;;;;;;;60.17;8.10;;;;;;;39.97;8.34;100991.28;5053912;28;20024;-60
2022/07/10 02:59:41;;;;;;;25.98;6.90;;;;;;;39.92;8.60;100989.00;5052484;28;20067;-60
2022/07/10 03:02:09;;;;;;;45.92;8.50;;;;;;;39.72;8.24;100997.84;5053306;28;20020;-59
2022/07/10 03:04:37;;;;;;;21.27;6.38;;;;;;;39.84;8.44;100988.44;5053709;28;20029;-60
2022/07/10 03:07:05;;;;;;;22.10;6.55;;;;;;;39.65;8.50;100998.06;5049712;28;20025;-59
2022/07/10 03:09:32;;;;;;;37.90;6.78;;;;;;;39.63;9.02;100994.91;5016506;28;20040;-60
2022/07/10 03:12:01;;;;;;;19.40;6.07;;;;;;;39.54;8.96;100991.97;5051604;28;20040;-62
2022/07/10 03:14:30;;;;;;;20.58;7.03;;;;;;;39.60;8.70;101003.56;5052747;28;20475;-60
2022/07/10 03:16:57;;;;;;;25.13;6.60;;;;;;;39.43;8.93;100995.16;5051651;28;20036;-60
2022/07/10 03:19:25;;;;;;;16.45;6.25;;;;;;;39.08;9.91;101011.34;5051701;28;20021;-60
2022/07/10 03:21:54;;;;;;;22.10;7.30;;;;;;;38.89;10.05;101006.63;5050687;28;20128;-59
2022/07/10 03:24:20;;;;;;;22.50;7.70;;;;;;;38.77;9.41;101007.41;5081701;28;20041;-60
2022/07/10 03:26:47;;;;;;;24.55;6.53;;;;;;;38.71;9.82;101014.91;5052634;28;20096;-60
2022/07/10 03:29:15;;;;;;;25.98;5.95;;;;;;;38.66;10.00;101016.28;5051638;28;20037;-60
2022/07/10 03:31:44;;;;;;;23.27;5.85;;;;;;;38.76;9.64;101022.88;5050225;28;20021;-61
2022/07/10 03:34:10;;;;;;;19.63;5.40;;;;;;;38.56;10.75;101020.19;5052853;28;20036;-61
2022/07/10 03:36:37;;;;;;;20.98;5.63;;;;;;;38.22;11.10;101024.41;5053046;28;20116;-60
2022/07/10 03:39:04;;;;;;;25.88;6.15;;;;;;;38.06;10.55;101027.25;5051517;28;20398;-61
2022/07/10 03:41:31;;;;;;;23.67;5.88;;;;;;;37.89;11.55;101023.69;5050708;28;20021;-59
2022/07/10 03:44:00;;;;;;;37.67;7.20;;;;;;;37.86;11.40;101033.06;5051737;28;20555;-61
2022/07/10 03:46:26;;;;;;;20.88;7.43;;;;;;;37.74;10.29;101036.63;5051819;28;20025;-61
2022/07/10 03:48:53;;;;;;;22.50;6.50;;;;;;;37.56;11.28;101042.72;5044202;28;20087;-60
2022/07/10 03:51:20;;;;;;;25.27;6.47;;;;;;;37.52;12.46;101056.19;5044098;28;20040;-61
2022/07/10 03:53:47;;;;;;;33.00;7.93;;;;;;;37.70;10.70;101055.72;5050216;28;20037;-60
2022/07/10 03:57:53;;;;;;;29.02;9.00;;;;;;;37.77;11.10;101062.06;5044955;28;20059;-61
2022/07/10 03:59:02;;;;;;;40.63;14.80;;;;;;;37.69;11.54;101056.97;5038848;28;20077;-61
2022/07/10 04:01:30;;;;;;;54.25;29.33;;;;;;;37.64;11.72;101066.81;5044805;28;20041;-61
2022/07/10 04:04:01;;;;;;;147.27;77.05;;;;;;;37.95;11.07;101055.13;5050012;28;20040;-61
2022/07/10 04:06:28;;;;;;;96.05;59.17;;;;;;;37.98;11.26;101062.75;5051141;28;20045;-62
2022/07/10 04:08:57;;;;;;;26.08;12.27;;;;;;;37.88;12.59;101073.13;5049660;28;20037;-62
2022/07/10 04:11:29;;;;;;;38.13;22.42;;;;;;;37.84;11.71;101080.16;5051792;28;20032;-61
2022/07/10 04:14:00;;;;;;;23.02;6.85;;;;;;;38.12;10.76;101076.56;5052414;28;20479;-61
2022/07/10 04:16:27;;;;;;;54.28;48.67;;;;;;;38.17;10.79;101095.09;5050632;28;20029;-61
2022/07/10 04:18:54;;;;;;;18.88;6.70;;;;;;;38.12;11.05;101087.13;5047678;28;20040;-61
2022/07/10 04:21:21;;;;;;;23.85;8.35;;;;;;;38.17;11.02;101081.69;5051142;28;20021;-63
2022/07/10 04:23:48;;;;;;;10.73;4.75;;;;;;;38.25;10.29;101088.03;5049245;28;20122;-60
2022/07/10 04:26:14;;;;;;;18.33;3.63;;;;;;;38.39;10.42;101093.28;5051017;28;20040;-61
2022/07/10 04:28:42;;;;;;;9.88;2.50;;;;;;;38.42;10.98;101092.41;5047227;28;20048;-60
2022/07/10 04:31:09;;;;;;;18.80;10.30;;;;;;;38.38;10.48;101095.34;5049583;28;20032;-61
2022/07/10 04:33:36;;;;;;;20.67;13.70;;;;;;;38.30;10.75;101110.19;5051226;28;20112;-61
2022/07/10 04:36:03;;;;;;;25.73;17.48;;;;;;;37.95;11.37;101101.34;5049624;28;20128;-60
2022/07/10 04:38:31;;;;;;;15.40;6.03;;;;;;;37.74;11.61;101110.41;5050744;28;20063;-60
2022/07/10 04:40:59;;;;;;;22.70;10.43;;;;;;;37.50;12.07;101113.34;5050873;28;20040;-61
2022/07/10 04:43:26;;;;;;;20.88;8.13;;;;;;;37.34;12.13;101106.84;5050080;28;20496;-60
2022/07/10 04:45:52;;;;;;;26.88;16.25;;;;;;;37.29;11.85;101110.22;5051490;28;20033;-61
2022/07/10 04:48:19;;;;;;;63.33;56.60;;;;;;;37.04;13.64;101114.38;5051824;28;20128;-60
2022/07/10 04:50:46;;;;;;;25.70;19.48;;;;;;;36.77;13.43;101125.03;5050967;28;20037;-60
2022/07/10 04:53:13;;;;;;;80.22;67.20;;;;;;;36.53;13.26;101124.28;5049892;28;20565;-60
2022/07/10 04:55:41;;;;;;;33.42;23.08;;;;;;;36.43;13.12;101119.63;5050960;28;20025;-61
2022/07/10 04:58:08;;;;;;;27.88;18.65;;;;;;;36.33;12.49;101117.81;5050847;28;20106;-59
2022/07/10 05:00:35;;;;;;;13.73;7.63;;;;;;;36.14;12.71;101125.78;5050961;28;20053;-60
2022/07/10 05:03:02;;;;;;;19.63;12.18;;;;;;;36.00;13.63;101131.69;5051232;28;20079;-61
2022/07/10 05:05:29;;;;;;;22.92;12.48;;;;;;;36.35;12.93;101138.00;5050020;28;20025;-61
2022/07/10 05:07:58;;;;;;;17.90;2.75;;;;;;;36.49;12.04;101138.53;5043742;28;20494;-60
2022/07/10 05:10:27;;;;;;;10.75;3.40;;;;;;;36.21;13.05;101139.81;5049766;28;20036;-61
2022/07/10 05:12:53;;;;;;;10.20;4.30;;;;;;;35.97;13.16;101133.34;5054252;28;20028;-61
2022/07/10 05:15:20;;;;;;;18.60;10.68;;;;;;;35.87;12.98;101142.00;5034110;28;20418;-60
2022/07/10 05:17:48;;;;;;;9.35;2.20;;;;;;;35.66;12.78;101138.25;5053743;28;20025;-61
2022/07/10 05:20:15;;;;;;;9.70;2.45;;;;;;;35.42;13.56;101140.25;5050962;28;20087;-59
2022/07/10 05:22:43;;;;;;;9.43;2.20;;;;;;;35.34;13.63;101147.16;5054601;28;20029;-59
2022/07/10 05:25:15;;;;;;;31.33;5.30;;;;;;;35.16;14.55;101146.63;5055372;28;20033;-59
2022/07/10 05:27:43;;;;;;;18.83;6.32;;;;;;;35.07;14.32;101141.50;5053344;28;20037;-58
2022/07/10 05:30:13;;;;;;;21.10;3.00;;;;;;;34.89;14.19;101149.38;5054391;28;20091;-60
2022/07/10 05:32:44;;;;;;;16.00;3.60;;;;;;;34.75;14.53;101141.03;5053819;28;20087;-60
2022/07/10 05:35:13;;;;;;;14.82;7.78;;;;;;;34.78;13.81;101140.19;5053985;28;20033;-61
2022/07/10 05:37:40;;;;;;;7.60;5.10;;;;;;;34.70;13.88;101142.31;5053603;28;20116;-59
2022/07/10 05:40:08;;;;;;;26.25;6.65;;;;;;;34.58;14.94;101142.03;5053925;28;20041;-60
2022/07/10 05:42:35;;;;;;;19.10;11.40;;;;;;;34.50;14.17;101138.50;5049752;28;20043;-59
2022/07/10 05:45:05;;;;;;;16.02;3.28;;;;;;;34.32;14.58;101130.19;5052658;28;20804;-60
2022/07/10 05:47:35;;;;;;;52.42;41.13;;;;;;;34.25;14.76;101124.59;5053526;28;20041;-58
2022/07/10 05:50:03;;;;;;;43.90;22.30;;;;;;;34.27;15.27;101129.81;5054181;28;20025;-59
2022/07/10 05:52:30;;;;;;;37.83;15.82;;;;;;;34.16;15.79;101127.09;5053611;28;20698;-59
2022/07/10 05:54:59;;;;;;;14.90;7.10;;;;;;;34.01;15.03;101119.97;5054075;28;20033;-60
2022/07/10 05:57:26;;;;;;;33.35;11.27;;;;;;;33.99;15.28;101119.59;5069261;28;20032;-59
2022/07/10 05:59:53;;;;;;;48.63;22.83;;;;;;;33.93;15.75;101113.59;5053490;28;20120;-59
2022/07/10 06:02:20;;;;;;;105.68;85.90;;;;;;;33.88;15.37;101119.69;5052833;28;20037;-60
2022/07/10 06:04:47;;;;;;;81.80;60.05;;;;;;;33.71;15.84;101115.75;5040058;28;20029;-59
2022/07/10 06:07:14;;;;;;;52.50;40.78;;;;;;;33.62;15.65;101121.06;5053450;28;20029;-59
2022/07/10 06:09:42;;;;;;;127.63;112.88;;;;;;;33.48;16.05;101124.78;5053807;28;20039;-59
2022/07/10 06:12:09;;;;;;;115.63;91.43;;;;;;;33.47;15.81;101122.38;5037998;28;20033;-60
2022/07/10 06:14:35;;;;;;;166.20;134.88;;;;;;;33.53;15.58;101127.16;5043802;28;20067;-58
2022/07/10 06:17:02;;;;;;;49.30;36.15;;;;;;;33.51;15.51;101123.13;5052471;28;20445;-59
2022/07/10 06:19:29;;;;;;;56.35;47.13;;;;;;;33.42;16.29;101125.63;5053142;28;20394;-58
2022/07/10 06:24:41;;;;;;;54.95;44.72;;;;;;;33.37;15.89;101126.03;5051085;28;20879;-60
2022/07/10 06:27:08;;;;;;;144.63;111.88;;;;;;;33.25;16.07;101124.47;5050783;28;20051;-60
2022/07/10 06:29:35;;;;;;;38.90;28.30;;;;;;;33.16;16.11;101127.72;5048613;28;20128;-60
2022/07/10 06:32:04;;;;;;;529.00;471.70;;;;;;;33.07;16.72;101124.56;5053041;28;20029;-61
2022/07/10 06:34:30;;;;;;;22.40;15.70;;;;;;;33.07;16.08;101118.94;5052699;28;20021;-59
2022/07/10 06:36:57;;;;;;;78.53;63.45;;;;;;;33.07;16.17;101121.75;5050822;28;20063;-60
2022/07/10 06:39:24;;;;;;;23.35;13.07;;;;;;;33.02;16.36;101130.59;5051081;28;20364;-61
2022/07/10 06:41:50;;;;;;;358.67;304.10;;;;;;;32.94;15.95;101127.03;5052760;28;20460;-60
2022/07/10 06:44:17;;;;;;;622.53;557.90;;;;;;;32.87;16.65;101115.00;5052453;28;20388;-59
2022/07/10 06:47:55;;;;;;;454.15;404.60;;;;;;;32.90;16.38;101122.63;5052481;28;20750;-60
2022/07/10 06:49:31;;;;;;;482.45;424.55;;;;;;;32.74;16.84;101120.22;5052789;28;20170;-59
2022/07/10 06:51:57;;;;;;;188.18;149.40;;;;;;;32.78;17.64;101128.66;5052908;28;20037;-59
2022/07/10 06:54:24;;;;;;;1515.00;983.10;;;;;;;33.32;16.39;101122.44;5051942;28;20025;-60
2022/07/10 06:56:51;;;;;;;272.58;240.10;;;;;;;33.08;16.51;101106.44;5050360;28;21575;-58
2022/07/10 06:59:18;;;;;;;39.35;31.60;;;;;;;32.86;16.88;101122.66;5050454;28;20047;-59
2022/07/10 07:01:46;;;;;;;30.50;23.00;;;;;;;32.65;17.55;101117.84;5051161;28;20033;-59
2022/07/10 07:04:13;;;;;;;84.13;60.97;;;;;;;32.56;17.82;101117.47;5050621;28;20104;-60
2022/07/10 07:06:39;;;;;;;67.15;43.33;;;;;;;32.47;18.09;101106.63;5052264;28;20033;-61
2022/07/10 07:09:06;;;;;;;164.45;137.55;;;;;;;32.40;17.65;101114.28;5052491;28;20067;-60
2022/07/10 07:11:33;;;;;;;32.25;23.23;;;;;;;32.25;18.09;101110.66;5050846;28;20029;-60
2022/07/10 07:14:00;;;;;;;37.17;24.88;;;;;;;32.22;17.88;101107.84;5051883;28;20036;-59
2022/07/10 07:16:39;;;;;;;30.63;14.50;;;;;;;32.19;17.75;101105.84;5052217;28;20460;-58
2022/07/10 07:19:06;;;;;;;28.65;15.50;;;;;;;32.23;17.72;101106.66;5049804;28;20028;-60
2022/07/10 07:24:20;;;;;;;19.00;6.32;;;;;;;32.14;18.02;101102.25;5051748;28;20395;-59
2022/07/10 07:26:48;;;;;;;18.65;4.13;;;;;;;31.96;19.11;101109.88;5050986;28;20029;-60
2022/07/10 07:29:17;;;;;;;19.98;4.20;;;;;;;31.90;18.03;101103.03;5048012;28;20471;-60
2022/07/10 07:31:44;;;;;;;26.58;3.88;;;;;;;31.83;18.60;101103.84;5050701;28;20029;-59
2022/07/10 07:34:11;;;;;;;17.23;3.70;;;;;;;31.74;18.38;101094.19;5051537;28;20036;-60
2022/07/10 07:36:38;;;;;;;25.50;3.97;;;;;;;31.60;18.39;101096.97;5050933;28;20049;-61
2022/07/10 07:39:05;;;;;;;18.30;3.35;;;;;;;31.66;18.71;101098.19;5051698;28;20033;-59
2022/07/10 07:41:32;;;;;;;14.65;3.13;;;;;;;31.58;18.41;101098.16;5051602;28;20086;-59
2022/07/10 07:43:59;;;;;;;16.80;3.13;;;;;;;31.64;18.00;101109.03;5050671;28;20523;-60
2022/07/10 07:46:26;;;;;;;19.92;3.13;;;;;;;31.60;18.33;101106.22;5050648;28;20029;-60
2022/07/10 07:48:52;;;;;;;24.90;3.72;;;;;;;31.54;18.02;101108.59;5049484;28;20503;-58
2022/07/10 07:51:19;;;;;;;17.67;2.70;;;;;;;31.45;18.18;101101.78;5051773;28;20037;-60
2022/07/10 07:53:47;;;;;;;18.63;3.60;;;;;;;31.46;18.29;101106.19;5050203;28;20033;-59
2022/07/10 07:56:14;;;;;;;23.17;2.95;;;;;;;31.42;18.43;101111.81;5033420;28;20103;-60
2022/07/10 07:58:41;;;;;;;18.83;3.08;;;;;;;31.80;17.72;101112.28;5047619;28;20040;-59
2022/07/10 08:01:07;;;;;;;18.67;2.95;;;;;;;31.92;17.65;101113.88;5044671;28;20136;-59
2022/07/10 08:03:34;;;;;;;17.10;2.70;;;;;;;32.08;17.97;101122.72;5048866;28;20098;-59
2022/07/10 08:06:01;;;;;;;31.63;3.13;;;;;;;31.89;18.52;101107.06;5051462;28;20025;-58
2022/07/10 08:08:28;;;;;;;17.88;2.97;;;;;;;31.73;18.86;101098.22;5049480;28;20087;-60
2022/07/10 08:10:55;;;;;;;19.15;2.88;;;;;;;31.58;18.91;101103.78;5051076;28;20044;-59
2022/07/10 08:13:22;;;;;;;21.40;3.33;;;;;;;31.58;19.43;101108.59;5050984;28;20049;-59
2022/07/10 08:15:53;;;;;;;20.35;3.38;;;;;;;31.41;19.64;101104.56;5048451;28;20033;-60
2022/07/10 08:18:19;;;;;;;22.45;3.90;;;;;;;31.33;19.27;101094.50;5046882;28;20033;-60
2022/07/10 08:20:46;;;;;;;26.92;5.32;;;;;;;31.21;19.73;101104.09;5047278;28;20091;-60
2022/07/10 08:23:15;;;;;;;13.32;4.35;;;;;;;31.18;19.49;101107.72;5041563;28;20087;-60
2022/07/10 08:25:41;;;;;;;20.73;4.25;;;;;;;31.09;19.79;101110.06;5054045;28;20090;-60
2022/07/10 08:28:11;;;;;;;15.20;4.13;;;;;;;30.88;20.00;101109.97;5050427;28;20404;-60
2022/07/10 08:30:41;;;;;;;28.25;4.20;;;;;;;30.78;20.40;101105.13;5057801;28;20489;-59
2022/07/10 08:33:09;;;;;;;49.05;4.90;;;;;;;30.73;21.11;101111.91;5047959;28;20057;-60
2022/07/10 08:35:37;;;;;;;25.00;4.03;;;;;;;30.71;20.97;101105.91;5043291;28;20029;-60
2022/07/10 08:38:05;;;;;;;22.17;3.88;;;;;;;30.61;21.64;101113.03;5047235;28;20033;-57
2022/07/10 08:40:38;;;;;;;30.45;3.95;;;;;;;30.49;21.33;101106.91;5050168;28;20083;-59
2022/07/10 08:43:07;;;;;;;19.52;3.47;;;;;;;30.46;21.61;101104.91;5049604;28;20025;-61
2022/07/10 08:45:34;;;;;;;32.63;3.95;;;;;;;30.42;21.36;101110.50;5044918;28;20040;-59
2022/07/10 08:48:07;;;;;;;26.90;4.20;;;;;;;30.48;21.35;101124.94;5051693;28;20127;-59
2022/07/10 08:50:38;;;;;;;31.23;4.82;;;;;;;30.43;21.45;101133.72;5056820;28;20128;-59
2022/07/10 08:53:22;;;;;;;44.63;4.20;;;;;;;30.43;21.73;101128.13;5051758;28;20116;-60
2022/07/10 08:55:49;;;;;;;13.73;3.53;;;;;;;30.38;22.15;101124.50;5051286;28;20162;-58
2022/07/10 08:58:20;;;;;;;27.55;4.50;;;;;;;30.33;22.38;101122.03;5066072;28;20029;-59
2022/07/10 09:00:49;;;;;;;27.30;4.30;;;;;;;30.26;22.12;101132.41;5054869;28;20487;-60
2022/07/10 09:03:16;;;;;;;59.25;4.82;;;;;;;30.21;21.88;101136.38;5055636;28;20028;-59
2022/07/10 09:05:43;;;;;;;15.77;2.60;;;;;;;30.24;21.37;101126.41;5053966;28;20048;-60
2022/07/10 09:08:30;;;;;;;16.80;3.30;;;;;;;30.11;21.55;101116.66;5052361;28;20108;-59
2022/07/10 09:11:15;;;;;;;9.43;2.20;;;;;;;30.11;21.13;101122.28;5035369;28;20515;-58
2022/07/10 09:13:53;;;;;;;14.10;2.50;;;;;;;30.03;20.69;101115.78;5046452;28;20136;-59
2022/07/10 09:16:29;;;;;;;13.82;2.47;;;;;;;30.02;20.55;101103.78;5050816;28;20048;-59
2022/07/10 09:18:56;;;;;;;11.75;2.22;;;;;;;30.01;20.38;101104.97;5061038;28;20032;-59
2022/07/10 09:21:25;;;;;;;7.68;2.35;;;;;;;30.04;20.19;101114.63;5051782;28;20116;-59
2022/07/10 09:23:55;;;;;;;12.70;2.15;;;;;;;29.85;20.51;101109.22;5051759;28;20033;-58
2022/07/10 09:26:22;;;;;;;11.23;2.00;;;;;;;29.90;20.35;101112.47;5041854;28;20503;-60
2022/07/10 09:29:06;;;;;;;18.45;2.65;;;;;;;29.87;20.29;101101.25;5045001;28;20432;-59
2022/07/10 09:31:53;;;;;;;11.65;2.28;;;;;;;29.73;20.52;101124.31;5054568;28;20029;-60
2022/07/10 09:34:41;;;;;;;9.00;2.20;;;;;;;29.66;20.77;101119.47;5054671;28;20379;-60
2022/07/10 09:37:21;;;;;;;16.80;3.33;;;;;;;29.49;20.97;101120.09;5060549;28;20050;-59
2022/07/10 09:40:05;;;;;;;15.52;3.00;;;;;;;29.41;20.84;101112.75;5058903;28;20037;-59
2022/07/10 09:42:33;;;;;;;13.45;2.88;;;;;;;29.35;20.73;101115.09;5042343;28;20517;-59
2022/07/10 09:45:12;;;;;;;12.60;2.78;;;;;;;29.38;21.50;101107.94;5050538;28;20112;-60
2022/07/10 09:47:43;;;;;;;14.45;2.72;;;;;;;29.33;21.36;101092.28;5062562;28;20116;-59
2022/07/10 09:50:34;;;;;;;12.02;3.42;;;;;;;29.39;22.41;101107.53;5056712;28;20043;-59
2022/07/10 09:53:04;;;;;;;30.80;3.47;;;;;;;29.35;21.39;101108.69;5053491;28;20036;-61
2022/07/10 09:55:34;;;;;;;9.43;2.58;;;;;;;29.33;20.86;101109.09;5037979;28;20029;-61
2022/07/10 09:58:02;;;;;;;14.63;2.47;;;;;;;29.44;20.64;101114.78;5045592;28;20091;-60
2022/07/10 10:00:37;;;;;;;12.85;2.50;;;;;;;29.31;21.08;101108.66;5046813;28;20124;-60
2022/07/10 10:03:07;;;;;;;10.15;2.10;;;;;;;29.21;21.11;101109.34;5053384;28;20029;-60
2022/07/10 10:05:43;;;;;;;10.40;2.17;;;;;;;29.28;21.60;101109.44;5061186;28;20031;-60
2022/07/10 10:08:12;;;;;;;9.52;2.05;;;;;;;29.23;21.29;101118.16;5055182;28;20036;-60
2022/07/10 10:10:51;;;;;;;14.32;2.13;;;;;;;29.24;22.17;101118.97;5054230;28;20472;-60
2022/07/10 10:13:23;;;;;;;10.70;2.10;;;;;;;29.14;21.56;101103.66;5042050;28;20045;-60
2022/07/10 10:15:52;;;;;;;11.13;2.03;;;;;;;29.15;21.79;101114.47;5050870;28;20040;-60
2022/07/10 10:18:21;;;;;;;8.55;1.65;;;;;;;29.09;21.63;101123.59;5054691;28;20501;-60
2022/07/10 10:20:49;;;;;;;10.48;1.60;;;;;;;29.10;21.76;101117.63;5054337;28;20111;-60
2022/07/10 10:23:20;;;;;;;7.10;2.30;;;;;;;29.11;21.67;101124.84;5054354;28;20029;-59
2022/07/10 10:25:53;;;;;;;9.82;1.90;;;;;;;29.09;21.30;101130.00;5054214;28;20064;-59
2022/07/10 10:28:23;;;;;;;10.80;2.00;;;;;;;29.08;22.18;101119.16;5053846;28;20029;-59
2022/07/10 10:30:53;;;;;;;9.32;2.38;;;;;;;29.16;21.23;101112.47;5050816;28;20094;-60
2022/07/10 10:33:35;;;;;;;8.10;2.47;;;;;;;29.28;21.08;101120.63;5052548;28;20479;-58
2022/07/10 10:36:05;;;;;;;14.52;4.65;;;;;;;29.13;21.75;101124.44;5053728;28;20151;-59
2022/07/10 10:38:55;;;;;;;20.80;6.07;;;;;;;29.04;21.50;101123.91;5052359;28;20043;-61
2022/07/10 10:41:36;;;;;;;17.58;7.63;;;;;;;28.81;21.22;101118.41;5053886;28;20064;-59
2022/07/10 10:44:18;;;;;;;17.77;8.02;;;;;;;28.85;21.45;101124.84;5053627;28;20041;-59
2022/07/10 10:46:54;;;;;;;16.58;5.88;;;;;;;28.87;21.79;101125.31;5054437;28;20037;-60
2022/07/10 10:49:25;;;;;;;10.60;3.67;;;;;;;28.66;22.65;101119.41;5054206;28;20565;-60
2022/07/10 10:52:03;;;;;;;14.20;3.03;;;;;;;28.67;22.30;101123.81;5054184;28;20033;-59
2022/07/10 10:54:51;;;;;;;11.63;2.60;;;;;;;28.75;21.94;101120.75;5053806;28;20491;-59
2022/07/10 10:57:18;;;;;;;14.80;2.70;;;;;;;28.82;22.08;101131.22;5053973;28;20037;-60
2022/07/10 10:59:59;;;;;;;8.20;2.45;;;;;;;28.76;22.16;101129.94;5068949;28;20111;-60
2022/07/10 11:02:42;;;;;;;16.55;2.70;;;;;;;28.72;22.32;101127.06;5052498;28;20114;-60
2022/07/10 11:05:20;;;;;;;14.00;3.03;;;;;;;28.73;22.97;101133.50;5053891;28;20122;-59
2022/07/10 11:08:02;;;;;;;22.30;5.50;;;;;;;28.68;23.83;101136.59;5053440;28;20072;-59
2022/07/10 11:10:29;;;;;;;32.42;8.02;;;;;;;28.52;24.57;101129.19;5052675;28;20036;-59
2022/07/10 11:13:08;;;;;;;28.15;8.07;;;;;;;28.45;24.69;101139.47;5053476;28;20091;-59
2022/07/10 11:15:42;;;;;;;29.45;7.60;;;;;;;28.47;24.71;101146.28;5052593;28;20029;-59
2022/07/10 11:18:10;;;;;;;19.02;6.45;;;;;;;28.50;24.35;101144.72;5053780;28;20083;-59
2022/07/10 11:20:49;;;;;;;26.48;7.93;;;;;;;28.40;25.13;101142.59;5053832;28;20033;-60
2022/07/10 11:23:36;;;;;;;34.97;9.50;;;;;;;28.34;26.38;101152.47;5053690;28;20068;-60
2022/07/10 11:26:07;;;;;;;34.03;10.50;;;;;;;28.37;26.42;101146.94;5053587;28;20041;-59
2022/07/10 11:28:56;;;;;;;38.28;11.00;;;;;;;28.43;26.46;101142.66;5053487;28;20090;-59
2022/07/10 11:31:23;;;;;;;34.28;10.07;;;;;;;28.51;26.49;101138.75;5053257;28;20464;-59
2022/07/10 11:33:54;;;;;;;32.88;10.75;;;;;;;28.41;26.09;101141.41;5053322;28;20134;-59
2022/07/10 11:36:34;;;;;;;30.55;10.20;;;;;;;28.33;26.64;101137.69;5053468;28;20078;-59
2022/07/10 11:39:07;;;;;;;36.90;10.65;;;;;;;28.21;27.43;101141.47;5053101;28;20172;-59